Impacts METAR Board INFO
IDs:

KISP - Islip/Macarthur Arpt, NY, US

Updated at: 2033 UTC 22 Feb 2018
Potential Impact None Slight Moderate High
Time22/08Z 22/09Z 22/10Z 22/11Z 22/12Z 22/13Z 22/14Z 22/15Z 22/16Z 22/17Z 22/18Z 22/19Z 22/20Z
VIS10 10 10 10 10 10 10 10 10 10 10 10 6
CIG45 48 50 55 55 55 43 55 46 46 34 34 36
CoverOVCOVCOVCOVCOVCOVCOVCOVCOVCOVCOVCOVCOVC
FltCatVFRVFRVFRVFRVFRVFRVFRVFRVFRVFRVFRVFRVFR
WX-RA-------------RA-RA---RA-RA-RA BR
WDir3601036010304030406070805070
WSpd10 11 10 13 13 11 12 10 9 8 10 6 6
WGst-- -- -- -- -- -- -- -- -- -- -- -- --
Raw hourly METARs
KISP 220756Z AUTO 36010KT 10SM -RA OVC045 11/05 A3047 RMK AO2 RAE01B44 SLP318 P0000 T01060050
KISP 220856Z AUTO 01011KT 10SM OVC048 09/04 A3048 RMK AO2 RAE13 SLP321 P0000 60000 T00940044 51024
KISP 220956Z AUTO 36010KT 10SM OVC050 09/03 A3051 RMK AO2 SLP329 T00890028
KISP 221056Z 01013KT 10SM OVC055 08/02 A3054 RMK AO2 SLP341 T00830017
KISP 221156Z 03013KT 10SM SCT023 OVC055 07/04 A3054 RMK AO2 RAB16E26 SLP341 P0000 60000 70001 T00720039 10128 20072 51019
KISP 221256Z 04011KT 10SM SCT021 OVC055 07/03 A3054 RMK AO2 SLP343 T00720033
KISP 221356Z 03012KT 10SM SCT023 BKN043 OVC055 07/02 A3057 RMK AO2 RAB07E21 SLP352 P0000 T00720022
KISP 221456Z 04010KT 10SM -RA FEW030 OVC055 07/02 A3060 RMK AO2 RAB53 SLP360 P0000 60000 T00670017 53020
KISP 221556Z 06009KT 10SM -RA OVC046 06/01 A3062 RMK AO2 RAE31B54 SLP368 P0000 T00610006
KISP 221656Z 07008KT 10SM FEW030 OVC046 06/01 A3058 RMK AO2 RAE23 SLP355 P0000 T00610011
KISP 221756Z 08010KT 10SM -RA OVC034 06/01 A3054 RMK AO2 RAB49 SLP343 P0000 60000 T00610011 10078 20061 58019
KISP 221856Z 05006KT 10SM -RA OVC034 06/02 A3055 RMK AO2 RAE36B55 SLP345 P0000 T00610017
KISP 221956Z 07006KT 6SM -RA BR OVC036 05/03 A3054 RMK AO2 SLP343 P0001 T00500028